Ramsey, South Dakota
Current Conditions -  °F | °C
As of 12:15 PM on Thursday 23 Oct 2014 (Local Time) from KMDS Reporting Station
Clear Clear  
Wind Chill: 63°   Ceiling: Unl
Heat Index: 63°   Visibility: 10mi
Dew Point: 48°   Wind: 7mph
Humidity: 59%   Direction: 230°SW
Pressure: 30.02"   Gusts: NA
Location:  43.7174°N, 97.1892°W
Report Text: KMDS 231715Z AUTO 23006KT 10SM CLR 17/09 A3002 RMK AO2
Loading
Personal Weather Stations






























Interactive Weather Map
Tropical Storm Tracking
New forecast layout! Learn more

10-Day Weather Forecast

Advertisements
Track Severe Weather on mobile